createdAt,value
2019-05-15T00:04:43.358Z,"    0"
2019-05-15T00:09:41.917Z,"    0"
2019-05-15T00:14:38.816Z,"    0"
2019-05-15T00:19:34.114Z,"    0"
2019-05-15T00:24:29.850Z,"    0"
2019-05-15T00:29:25.405Z,"    0"
2019-05-15T00:34:20.800Z,"    0"
2019-05-15T00:39:18.956Z,"    0"
2019-05-15T00:44:14.138Z,"    0"
2019-05-15T00:49:09.906Z,"    0"
2019-05-15T00:54:05.780Z,"    0"
2019-05-15T00:59:01.384Z,"    0"
2019-05-15T01:03:58.588Z,"    0"
2019-05-15T01:08:53.978Z,"    0"
2019-05-15T01:13:49.823Z,"    0"
2019-05-15T01:18:45.734Z,"    0"
2019-05-15T01:23:41.473Z,"    0"
2019-05-15T01:28:38.508Z,"    0"
2019-05-15T01:33:33.873Z,"    0"
2019-05-15T01:38:29.688Z,"    0"
2019-05-15T01:43:26.047Z,"    0"
2019-05-15T01:48:21.719Z,"    0"
2019-05-15T01:53:18.690Z,"    0"
2019-05-15T01:58:14.337Z,"    0"
2019-05-15T02:03:10.853Z,"    0"
2019-05-15T02:08:08.190Z,"    0"
2019-05-15T02:13:03.884Z,"    0"
2019-05-15T02:17:59.549Z,"    0"
2019-05-15T02:22:56.260Z,"    0"
2019-05-15T02:27:51.789Z,"    0"
2019-05-15T02:32:50.143Z,"    0"
2019-05-15T02:37:48.811Z,"    0"
2019-05-15T02:42:44.756Z,"    0"
2019-05-15T02:47:40.306Z,"    0"
2019-05-15T02:52:38.850Z,"    0"
2019-05-15T02:57:34.409Z,"    4"
2019-05-15T03:02:29.828Z,"    4"
2019-05-15T03:07:25.451Z,"    4"
2019-05-15T03:12:21.164Z,"   12"
2019-05-15T03:17:19.083Z,"   24"
2019-05-15T03:22:14.197Z,"   40"
2019-05-15T03:27:10.147Z,"   72"
2019-05-15T03:32:24.412Z,"  120"
2019-05-15T03:37:11.661Z,"  180"
2019-05-15T03:42:09.565Z,"  256"
2019-05-15T03:47:04.184Z,"  348"
2019-05-15T03:51:59.864Z,"  456"
2019-05-15T03:56:58.466Z,"  568"
2019-05-15T04:01:53.614Z,"  684"
2019-05-15T04:06:50.046Z,"  804"
2019-05-15T04:11:49.688Z,"  920"
2019-05-15T04:16:44.434Z," 1064"
2019-05-15T04:21:44.636Z," 2960"
2019-05-15T04:26:40.334Z," 3568"
2019-05-15T04:31:51.756Z," 4212"
2019-05-15T04:36:43.846Z," 4800"
2019-05-15T04:41:39.431Z," 5256"
2019-05-15T04:46:38.961Z," 4104"
2019-05-15T04:51:33.666Z," 2960"
2019-05-15T04:56:29.527Z," 2956"
2019-05-15T05:01:25.114Z," 4996"
2019-05-15T05:06:21.016Z," 3104"
2019-05-15T05:11:19.775Z," 2700"
2019-05-15T05:16:18.880Z," 2692"
2019-05-15T05:21:14.257Z," 5376"
2019-05-15T05:26:11.198Z," 3180"
2019-05-15T05:31:08.483Z," 3048"
2019-05-15T05:36:03.898Z," 3376"
2019-05-15T05:41:00.889Z," 4148"
2019-05-15T05:45:58.251Z," 3928"
2019-05-15T05:50:53.527Z," 2900"
2019-05-15T05:55:52.974Z," 2736"
2019-05-15T06:00:49.097Z," 2712"
2019-05-15T06:05:44.917Z," 2556"
2019-05-15T06:10:41.506Z," 2744"
2019-05-15T06:15:37.968Z," 2500"
2019-05-15T06:20:33.770Z," 2500"
2019-05-15T06:25:30.469Z," 2792"
2019-05-15T06:30:30.259Z," 2576"
2019-05-15T06:35:30.916Z," 2900"
2019-05-15T06:40:25.903Z," 2736"
2019-05-15T06:45:21.637Z," 2636"
2019-05-15T06:50:17.947Z," 2676"
2019-05-15T06:55:14.919Z," 2648"
2019-05-15T07:00:10.494Z," 2680"
2019-05-15T07:05:07.870Z," 4256"
2019-05-15T07:10:03.516Z," 3620"
2019-05-15T07:14:59.557Z," 2908"
2019-05-15T07:19:55.349Z," 2932"
2019-05-15T07:24:51.858Z," 7800"
2019-05-15T07:29:48.746Z," 3436"
2019-05-15T07:34:45.175Z," 3164"
2019-05-15T07:39:40.702Z," 3144"
2019-05-15T07:44:38.870Z,13588
2019-05-15T07:49:35.390Z,37088
2019-05-15T07:54:34.786Z,49184
2019-05-15T07:59:33.041Z,52480
2019-05-15T08:04:33.166Z,53760
2019-05-15T08:09:30.293Z,61344
2019-05-15T08:14:28.897Z,49280
2019-05-15T08:19:24.382Z,61952
2019-05-15T08:24:20.751Z,47456
2019-05-15T08:29:21.133Z,72704
2019-05-15T08:34:19.411Z,65504
2019-05-15T08:39:15.713Z,57504
2019-05-15T08:44:10.652Z,57344
2019-05-15T08:49:09.247Z,46112
2019-05-15T08:54:05.277Z,53216
2019-05-15T08:59:01.265Z,45888
2019-05-15T09:03:58.283Z,46208
2019-05-15T09:08:58.332Z,58784
2019-05-15T09:13:54.574Z,60704
2019-05-15T09:18:51.351Z,48544
2019-05-15T09:23:49.835Z,62912
2019-05-15T09:28:49.163Z,84992
2019-05-15T09:33:44.379Z,65696
2019-05-15T09:43:42.399Z,63072
2019-05-15T09:48:39.574Z,75072
2019-05-15T09:53:39.113Z,78784
2019-05-15T09:58:37.656Z,78336
2019-05-15T10:03:33.595Z,79456
2019-05-15T10:08:29.316Z,75744
2019-05-15T10:13:24.648Z,76896
2019-05-15T10:18:22.264Z,85024
2019-05-15T10:23:19.502Z,63968
2019-05-15T10:28:18.686Z,94176
2019-05-15T10:33:14.705Z,67104
2019-05-15T10:38:10.750Z,66784
2019-05-15T10:43:09.075Z,92192
2019-05-15T10:48:04.992Z,70080
2019-05-15T10:53:04.367Z,69568
2019-05-15T10:57:59.899Z,90112
2019-05-15T11:02:57.842Z,76192
2019-05-15T11:07:52.149Z,82208
2019-05-15T11:12:49.286Z,52832
2019-05-15T11:17:45.331Z,106944
2019-05-15T11:22:42.965Z,88896
2019-05-15T11:27:40.283Z,96832
2019-05-15T11:32:39.158Z,101056
2019-05-15T11:37:35.025Z,82688
2019-05-15T11:47:34.649Z,100480
2019-05-15T11:52:30.134Z,90944
2019-05-15T11:57:39.353Z,93856
2019-05-15T12:02:25.839Z,35584
2019-05-15T12:07:19.572Z,109888
2019-05-15T12:12:18.093Z,31168
2019-05-15T12:17:15.508Z,19712
2019-05-15T12:22:09.395Z,64032
2019-05-15T12:27:15.373Z,66624
2019-05-15T12:32:25.212Z,87008
2019-05-15T12:37:09.795Z,93952
2019-05-15T13:02:01.672Z,93888
2019-05-15T13:07:12.126Z,71552
2019-05-15T13:11:58.454Z,60416
2019-05-15T13:16:55.455Z,77216
2019-05-15T13:21:51.542Z,31264
2019-05-15T13:26:47.643Z," 8288"
2019-05-15T13:31:41.747Z," 8064"
2019-05-15T13:36:39.242Z," 9304"
2019-05-15T13:41:34.583Z," 7032"
2019-05-15T13:46:32.985Z," 6176"
2019-05-15T13:51:29.043Z," 7272"
2019-05-15T13:56:28.814Z," 8412"
2019-05-15T14:01:23.806Z," 6568"
2019-05-15T14:06:20.346Z," 7048"
2019-05-15T14:11:21.164Z," 9320"
2019-05-15T14:16:15.866Z," 9064"
2019-05-15T14:21:11.672Z," 5968"
2019-05-15T14:26:18.343Z," 4664"
2019-05-15T14:31:09.512Z," 5620"
2019-05-15T14:36:04.621Z," 6112"
2019-05-15T14:41:00.638Z," 7904"
2019-05-15T14:45:58.546Z," 5444"
2019-05-15T14:50:54.623Z," 4236"
2019-05-15T14:55:50.058Z," 4188"
2019-05-15T15:00:49.657Z," 4152"
2019-05-15T15:05:44.579Z," 6172"
2019-05-15T15:10:41.784Z," 6640"
2019-05-15T15:15:38.514Z," 4820"
2019-05-15T15:20:34.074Z," 5296"
2019-05-15T15:25:29.949Z," 5036"
2019-05-15T15:30:25.520Z," 4392"
2019-05-15T15:35:21.557Z," 3704"
2019-05-15T15:40:18.910Z," 2808"
2019-05-15T15:45:14.397Z," 2444"
2019-05-15T15:50:11.366Z," 2612"
2019-05-15T15:55:08.907Z," 2808"
2019-05-15T16:00:04.917Z," 3732"
2019-05-15T16:05:00.923Z," 4856"
2019-05-15T16:09:58.882Z," 4748"
2019-05-15T16:14:57.810Z," 3320"
2019-05-15T16:19:52.663Z," 3216"
2019-05-15T16:24:49.147Z," 2992"
2019-05-15T16:29:44.529Z," 2080"
2019-05-15T16:34:40.264Z," 2436"
2019-05-15T16:39:38.034Z," 3104"
2019-05-15T16:44:33.791Z," 3524"
2019-05-15T16:49:29.769Z," 4200"
2019-05-15T16:54:28.837Z," 3924"
2019-05-15T16:59:24.225Z," 3488"
2019-05-15T17:04:21.630Z," 3588"
2019-05-15T17:09:21.619Z," 3276"
2019-05-15T17:14:19.796Z," 2420"
2019-05-15T17:19:15.469Z," 1508"
2019-05-15T17:24:10.818Z," 1408"
2019-05-15T17:29:08.942Z," 1580"
2019-05-15T17:34:05.387Z," 1592"
2019-05-15T17:39:00.879Z," 1548"
2019-05-15T17:43:57.987Z," 1760"
2019-05-15T17:48:56.351Z," 1852"
2019-05-15T17:53:52.126Z," 1768"
2019-05-15T17:58:49.089Z," 1688"
2019-05-15T18:03:48.452Z," 1324"
2019-05-15T18:08:43.799Z," 1052"
2019-05-15T18:13:39.660Z," 1016"
2019-05-15T18:18:35.399Z,"  984"
2019-05-15T18:23:32.614Z,"  960"
2019-05-15T18:28:28.436Z,"  892"
2019-05-15T18:33:24.284Z,"  892"
2019-05-15T18:38:20.237Z,"  840"
2019-05-15T18:43:17.994Z,"  576"
2019-05-15T18:48:13.125Z,"  436"
2019-05-15T18:53:10.053Z,"  340"
2019-05-15T18:58:08.809Z,"  264"
2019-05-15T19:03:18.357Z,"  200"
2019-05-15T19:08:03.429Z,"  124"
2019-05-15T19:12:59.143Z,"  108"
2019-05-15T19:17:55.718Z,"   80"
2019-05-15T19:22:51.248Z,"   56"
2019-05-15T19:27:46.990Z,"   28"
2019-05-15T19:32:43.070Z,"   16"
2019-05-15T19:37:39.921Z,"    8"
2019-05-15T19:42:38.082Z,"    4"
2019-05-15T19:47:34.263Z,"    4"
2019-05-15T19:52:29.735Z,"    0"
2019-05-15T19:57:28.023Z,"    0"
2019-05-15T20:02:22.908Z,"    0"
2019-05-15T20:07:20.028Z,"    0"
2019-05-15T20:12:15.546Z,"    0"
2019-05-15T20:17:11.274Z,"    0"
2019-05-15T20:22:08.584Z,"    0"
2019-05-15T20:27:04.644Z,"    0"
2019-05-15T20:32:01.446Z,"    0"
2019-05-15T20:36:58.752Z,"    0"
2019-05-15T20:41:54.372Z,"    0"
2019-05-15T20:46:50.999Z,"    0"
2019-05-15T20:51:48.900Z,"    0"
2019-05-15T20:56:44.065Z,"    0"
2019-05-15T21:01:40.783Z,"    0"
2019-05-15T21:06:37.726Z,"    0"
2019-05-15T21:11:34.403Z,"    0"
2019-05-15T21:16:29.909Z,"    0"
2019-05-15T21:21:28.263Z,"    0"
2019-05-15T21:26:23.198Z,"    0"
2019-05-15T21:31:21.811Z,"    0"
2019-05-15T21:36:19.446Z,"    0"
2019-05-15T21:41:18.627Z,"    0"
2019-05-15T21:46:13.539Z,"    0"
2019-05-15T21:51:11.748Z,"    0"
2019-05-15T21:56:08.173Z,"    0"
2019-05-15T22:01:03.734Z,"    0"
2019-05-15T22:05:59.538Z,"    0"
2019-05-15T22:10:55.371Z,"    0"
2019-05-15T22:15:51.342Z,"    0"
2019-05-15T22:20:48.061Z,"    0"
2019-05-15T22:25:43.569Z,"    0"
2019-05-15T22:30:39.400Z,"    0"
2019-05-15T22:35:37.705Z,"    0"
2019-05-15T22:40:34.202Z,"    0"
2019-05-15T22:45:30.187Z,"    0"
2019-05-15T22:50:28.133Z,"    0"
2019-05-15T22:55:24.584Z,"    0"
2019-05-15T23:00:20.123Z,"    0"
2019-05-15T23:05:26.946Z,"    0"
2019-05-15T23:10:15.116Z,"    0"
2019-05-15T23:15:11.853Z,"    0"
2019-05-15T23:20:08.647Z,"    0"
2019-05-15T23:25:03.549Z,"    0"
2019-05-15T23:29:59.281Z,"    0"
2019-05-15T23:34:55.177Z,"    0"
2019-05-15T23:39:51.327Z,"    0"
2019-05-15T23:44:48.667Z,"    0"
2019-05-15T23:49:43.830Z,"    0"
2019-05-15T23:54:41.784Z,"    0"
2019-05-15T23:59:38.423Z,"    0"
